createdAt,value
2022-10-05T00:01:42.831Z,21.11
2022-10-05T00:04:19.964Z,21.11
2022-10-05T00:06:51.002Z,21.10
2022-10-05T00:09:19.343Z,21.11
2022-10-05T00:11:46.722Z,21.10
2022-10-05T00:14:30.888Z,21.09
2022-10-05T00:16:57.985Z,21.10
2022-10-05T00:19:28.404Z,21.09
2022-10-05T00:22:06.831Z,21.07
2022-10-05T00:24:37.001Z,21.07
2022-10-05T00:27:39.852Z,21.07
2022-10-05T00:30:12.631Z,21.05
2022-10-05T00:32:39.891Z,21.04
2022-10-05T00:35:11.703Z,21.05
2022-10-05T00:37:38.653Z,21.04
2022-10-05T00:40:20.563Z,21.04
2022-10-05T00:42:47.293Z,21.04
2022-10-05T00:45:21.548Z,21.02
2022-10-05T00:47:48.123Z,21.01
2022-10-05T00:50:26.885Z,21.03
2022-10-05T00:52:58.799Z,21.03
2022-10-05T00:55:42.551Z,21.03
2022-10-05T00:58:32.525Z,21.02
2022-10-05T01:01:06.316Z,21.04
2022-10-05T01:03:51.616Z,21.04
2022-10-05T01:06:40.513Z,21.04
2022-10-05T01:09:12.350Z,21.03
2022-10-05T01:11:43.949Z,21.04
2022-10-05T01:14:15.967Z,21.03
2022-10-05T01:16:42.888Z,21.03
2022-10-05T01:19:18.840Z,21.03
2022-10-05T01:21:50.737Z,21.03
2022-10-05T01:24:31.731Z,21.03
2022-10-05T01:27:16.881Z,21.01
2022-10-05T01:29:58.755Z,21.03
2022-10-05T01:32:43.176Z,21.01
2022-10-05T01:35:18.811Z,21.02
2022-10-05T01:38:01.328Z,21.02
2022-10-05T01:40:31.392Z,21.02
2022-10-05T01:43:16.608Z,21.03
2022-10-05T01:46:01.795Z,21.03
2022-10-05T01:48:46.584Z,21.02
2022-10-05T01:51:28.087Z,21.03
2022-10-05T01:54:00.718Z,21.01
2022-10-05T01:56:39.962Z,21.02
2022-10-05T01:59:19.103Z,21.02
2022-10-05T02:01:53.196Z,21.02
2022-10-05T02:04:56.480Z,21.02
2022-10-05T02:07:14.779Z,21.02
2022-10-05T02:09:48.692Z,21.03
2022-10-05T02:12:18.921Z,21.02
2022-10-05T02:14:49.550Z,21.02
2022-10-05T02:17:28.619Z,21.02
2022-10-05T02:20:04.301Z,21.01
2022-10-05T02:22:35.007Z,21.02
2022-10-05T02:25:04.112Z,21.02
2022-10-05T02:27:40.999Z,21.02
2022-10-05T02:30:11.635Z,21.02
2022-10-05T02:32:51.428Z,21.01
2022-10-05T02:35:19.502Z,21.01
2022-10-05T02:37:50.446Z,21.03
2022-10-05T02:40:35.669Z,21.01
2022-10-05T02:43:11.738Z,21.03
2022-10-05T02:45:38.358Z,21.03
2022-10-05T02:48:23.841Z,21.02
2022-10-05T02:50:58.479Z,21.01
2022-10-05T02:53:25.678Z,21.01
2022-10-05T02:55:59.782Z,21.01
2022-10-05T02:58:29.240Z,21.02
2022-10-05T03:01:00.668Z,21.01
2022-10-05T03:03:27.346Z,21.01
2022-10-05T03:05:53.928Z,21.01
2022-10-05T03:08:23.662Z,21.02
2022-10-05T03:10:58.198Z,21.02
2022-10-05T03:13:30.817Z,21.01
2022-10-05T03:16:11.225Z,21.02
2022-10-05T03:18:43.613Z,21.02
2022-10-05T03:21:10.244Z,21.02
2022-10-05T03:23:39.670Z,21.02
2022-10-05T03:26:18.580Z,21.02
2022-10-05T03:28:54.142Z,21.02
2022-10-05T03:31:25.922Z,21.02
2022-10-05T03:33:52.530Z,21.01
2022-10-05T03:36:21.900Z,21.03
2022-10-05T03:39:10.888Z,21.02
2022-10-05T03:41:45.448Z,21.02
2022-10-05T03:44:19.832Z,21.02
2022-10-05T03:47:05.535Z,21.02
2022-10-05T03:49:35.295Z,21.01
2022-10-05T03:52:25.645Z,21.02
2022-10-05T03:54:52.208Z,21.01
2022-10-05T03:57:20.767Z,21.01
2022-10-05T03:59:56.551Z,21.01
2022-10-05T04:02:52.674Z,21.01
2022-10-05T04:05:22.046Z,21.01
2022-10-05T04:07:52.291Z,21.01
2022-10-05T04:10:23.790Z,21.01
2022-10-05T04:13:10.612Z,21.00
2022-10-05T04:15:42.748Z,21.02
2022-10-05T04:18:31.211Z,21.00
2022-10-05T04:21:04.326Z,21.01
2022-10-05T04:23:40.352Z,21.00
2022-10-05T04:26:10.705Z,21.00
2022-10-05T04:28:52.448Z,21.01
2022-10-05T04:31:29.445Z,21.00
2022-10-05T04:34:02.283Z,21.01
2022-10-05T04:36:45.451Z,21.00
2022-10-05T04:39:31.415Z,21.01
2022-10-05T04:42:16.657Z,21.00
2022-10-05T04:44:59.129Z,21.01
2022-10-05T04:47:35.528Z,21.01
2022-10-05T04:50:15.694Z,21.01
2022-10-05T04:52:49.892Z,21.02
2022-10-05T04:55:36.820Z,21.01
2022-10-05T04:58:03.409Z,21.02
2022-10-05T05:00:49.248Z,21.01
2022-10-05T05:03:21.852Z,21.01
2022-10-05T05:06:15.988Z,21.01
2022-10-05T05:08:59.904Z,21.00
2022-10-05T05:11:34.971Z,21.01
2022-10-05T05:14:04.600Z,21.00
2022-10-05T05:16:41.730Z,21.00
2022-10-05T05:19:20.604Z,21.00
2022-10-05T05:21:52.335Z,21.00
2022-10-05T05:24:33.487Z,21.00
2022-10-05T05:27:18.704Z,21.00
2022-10-05T05:30:03.998Z,20.99
2022-10-05T05:32:41.743Z,20.99
2022-10-05T05:35:20.631Z,21.00
2022-10-05T05:37:53.838Z,21.00
2022-10-05T05:40:34.836Z,21.00
2022-10-05T05:43:01.412Z,20.99
2022-10-05T05:45:42.145Z,21.00
2022-10-05T05:48:16.471Z,20.99
2022-10-05T05:50:49.707Z,20.99
2022-10-05T05:53:16.363Z,20.99
2022-10-05T05:55:45.862Z,20.99
2022-10-05T05:58:12.466Z,20.99
2022-10-05T06:00:43.165Z,20.99
2022-10-05T06:03:14.111Z,21.00
2022-10-05T06:05:50.128Z,20.99
2022-10-05T06:08:22.532Z,20.99
2022-10-05T06:10:53.247Z,20.99
2022-10-05T06:13:23.459Z,21.00
2022-10-05T06:15:56.272Z,21.00
2022-10-05T06:18:23.390Z,21.01
2022-10-05T06:20:50.084Z,21.01
2022-10-05T06:23:18.544Z,21.00
2022-10-05T06:25:45.137Z,21.00
2022-10-05T06:28:13.030Z,21.00
2022-10-05T06:30:49.096Z,21.04
2022-10-05T06:33:24.488Z,21.02
2022-10-05T06:36:03.555Z,21.02
2022-10-05T06:38:33.092Z,21.01
2022-10-05T06:41:02.815Z,21.02
2022-10-05T06:43:49.678Z,21.01
2022-10-05T06:46:25.874Z,21.02
2022-10-05T06:49:04.644Z,21.02
2022-10-05T06:51:37.488Z,21.08
2022-10-05T06:54:23.050Z,21.15
2022-10-05T06:57:10.723Z,21.14
2022-10-05T06:59:45.881Z,21.13
2022-10-05T07:02:26.905Z,21.19
2022-10-05T07:05:14.141Z,21.22
2022-10-05T07:07:40.828Z,21.22
2022-10-05T07:10:07.511Z,21.25
2022-10-05T07:12:37.277Z,21.29
2022-10-05T07:15:06.850Z,21.30
2022-10-05T07:17:49.975Z,21.33
2022-10-05T07:20:35.101Z,21.37
2022-10-05T07:23:23.276Z,21.41
2022-10-05T07:25:57.688Z,21.45
2022-10-05T07:28:40.145Z,21.47
2022-10-05T07:31:09.754Z,21.47
2022-10-05T07:33:51.820Z,21.50
2022-10-05T07:36:43.159Z,21.49
2022-10-05T07:39:21.113Z,21.50
2022-10-05T07:41:56.435Z,21.53
2022-10-05T07:44:28.184Z,21.52
2022-10-05T07:46:58.626Z,21.55
2022-10-05T07:49:35.786Z,21.56
2022-10-05T07:52:06.541Z,21.59
2022-10-05T07:54:33.100Z,21.58
2022-10-05T07:57:25.762Z,21.60
2022-10-05T08:00:13.874Z,21.63
2022-10-05T08:02:52.494Z,21.63
2022-10-05T08:05:24.197Z,21.67
2022-10-05T08:07:54.550Z,21.69
2022-10-05T08:10:37.846Z,21.68
2022-10-05T08:13:19.841Z,21.69
2022-10-05T08:15:50.513Z,21.71
2022-10-05T08:18:23.087Z,21.70
2022-10-05T08:20:52.759Z,21.70
2022-10-05T08:23:23.967Z,21.70
2022-10-05T08:25:55.672Z,21.71
2022-10-05T08:28:34.470Z,21.71
2022-10-05T08:31:11.948Z,21.72
2022-10-05T08:33:46.217Z,21.72
2022-10-05T08:36:14.483Z,21.74
2022-10-05T08:38:42.030Z,21.73
2022-10-05T08:41:14.946Z,21.72
2022-10-05T08:43:50.552Z,21.75
2022-10-05T08:46:23.150Z,21.76
2022-10-05T08:49:10.157Z,21.78
2022-10-05T08:52:06.120Z,21.76
2022-10-05T08:54:51.463Z,21.76
2022-10-05T08:57:36.248Z,21.74
2022-10-05T09:00:03.065Z,21.76
2022-10-05T09:02:32.508Z,21.75
2022-10-05T09:05:34.847Z,21.76
2022-10-05T09:08:20.971Z,21.76
2022-10-05T09:10:47.710Z,21.77
2022-10-05T09:13:36.200Z,21.76
2022-10-05T09:16:14.885Z,21.73
2022-10-05T09:18:44.682Z,21.72
2022-10-05T09:21:24.324Z,21.71
2022-10-05T09:24:02.766Z,21.71
2022-10-05T09:26:29.609Z,21.69
2022-10-05T09:28:56.267Z,21.69
2022-10-05T09:31:41.288Z,21.68
2022-10-05T09:34:13.723Z,21.67
2022-10-05T09:36:59.106Z,21.67
2022-10-05T09:39:43.388Z,21.65
2022-10-05T09:42:25.445Z,21.67
2022-10-05T09:45:10.628Z,21.67
2022-10-05T09:47:46.014Z,21.68
2022-10-05T09:50:22.987Z,21.71
2022-10-05T09:53:03.865Z,21.68
2022-10-05T09:55:49.009Z,21.68
2022-10-05T09:58:18.502Z,21.67
2022-10-05T10:00:54.226Z,21.66
2022-10-05T10:03:49.120Z,21.66
2022-10-05T10:06:22.010Z,21.64
2022-10-05T10:09:07.055Z,21.64
2022-10-05T10:11:33.659Z,21.64
2022-10-05T10:14:20.351Z,21.62
2022-10-05T10:17:07.046Z,21.61
2022-10-05T10:19:40.307Z,21.61
2022-10-05T10:22:39.640Z,21.60
2022-10-05T10:25:11.561Z,21.58
2022-10-05T10:28:07.330Z,21.58
2022-10-05T10:30:52.537Z,21.56
2022-10-05T10:33:37.391Z,21.55
2022-10-05T10:36:39.551Z,21.55
2022-10-05T10:39:18.148Z,21.53
2022-10-05T10:41:47.544Z,21.54
2022-10-05T10:44:14.224Z,21.52
2022-10-05T10:46:40.995Z,21.50
2022-10-05T10:49:26.345Z,21.52
2022-10-05T10:52:01.910Z,21.50
2022-10-05T10:54:47.041Z,21.49
2022-10-05T10:57:32.052Z,21.49
2022-10-05T11:00:05.911Z,21.48
2022-10-05T11:02:51.997Z,21.47
2022-10-05T11:05:18.598Z,21.46
2022-10-05T11:08:00.236Z,21.46
2022-10-05T11:10:26.836Z,21.45
2022-10-05T11:13:08.469Z,21.45
2022-10-05T11:15:58.305Z,21.42
2022-10-05T11:18:24.939Z,21.43
2022-10-05T11:20:57.613Z,21.42
2022-10-05T11:23:42.963Z,21.41
2022-10-05T11:26:15.468Z,21.40
2022-10-05T11:29:03.855Z,21.39
2022-10-05T11:31:37.911Z,21.37
2022-10-05T11:34:11.695Z,21.35
2022-10-05T11:36:41.160Z,21.36
2022-10-05T11:39:10.816Z,21.34
2022-10-05T11:41:58.279Z,21.33
2022-10-05T11:44:34.210Z,21.33
2022-10-05T11:47:08.701Z,21.32
2022-10-05T11:49:35.355Z,21.32
2022-10-05T11:52:01.988Z,21.31
2022-10-05T11:57:49.883Z,21.29
2022-10-05T12:00:18.531Z,21.29
2022-10-05T12:03:03.691Z,21.28
2022-10-05T12:05:49.125Z,21.28
2022-10-05T12:08:34.271Z,21.26
2022-10-05T12:11:25.888Z,21.26
2022-10-05T12:14:08.318Z,21.23
2022-10-05T12:16:48.445Z,21.23
2022-10-05T12:19:28.625Z,21.21
2022-10-05T12:22:18.775Z,21.21
2022-10-05T12:25:01.764Z,21.20
2022-10-05T12:27:32.230Z,21.20
2022-10-05T12:30:01.834Z,21.20
2022-10-05T12:32:37.029Z,21.18
2022-10-05T12:35:03.567Z,21.19
2022-10-05T12:37:36.750Z,21.18
2022-10-05T12:40:08.295Z,21.18
2022-10-05T12:42:51.412Z,21.16
2022-10-05T12:45:33.125Z,21.17
2022-10-05T12:47:59.669Z,21.17
2022-10-05T12:50:36.998Z,21.15
2022-10-05T12:53:09.601Z,21.16
2022-10-05T12:55:39.239Z,21.15
2022-10-05T12:58:11.683Z,21.14
2022-10-05T13:00:44.031Z,21.14
2022-10-05T13:03:18.465Z,21.14
2022-10-05T13:05:50.570Z,21.13
2022-10-05T13:08:21.305Z,21.12
2022-10-05T13:11:00.008Z,21.11
2022-10-05T13:13:28.512Z,21.12
2022-10-05T13:16:17.265Z,21.11
2022-10-05T13:18:54.570Z,21.11
2022-10-05T13:21:26.785Z,21.10
2022-10-05T13:24:02.687Z,21.09
2022-10-05T13:26:32.737Z,21.10
2022-10-05T13:29:17.864Z,21.10
2022-10-05T13:31:50.510Z,21.10
2022-10-05T13:34:26.352Z,21.10
2022-10-05T13:36:59.370Z,21.09
2022-10-05T13:39:44.462Z,21.09
2022-10-05T13:42:22.903Z,21.08
2022-10-05T13:45:01.571Z,21.08
2022-10-05T13:47:31.799Z,21.09
2022-10-05T13:50:14.114Z,21.08
2022-10-05T13:53:02.329Z,21.08
2022-10-05T13:55:58.122Z,21.08
2022-10-05T13:58:33.874Z,21.07
2022-10-05T14:01:02.384Z,21.07
2022-10-05T14:03:35.244Z,21.06
2022-10-05T14:06:04.177Z,21.08
2022-10-05T14:08:33.627Z,21.08
2022-10-05T14:11:03.196Z,21.08
2022-10-05T14:13:46.886Z,21.06
2022-10-05T14:16:13.665Z,21.06
2022-10-05T14:19:00.735Z,21.07
2022-10-05T14:21:31.111Z,21.06
2022-10-05T14:24:32.076Z,21.06
2022-10-05T14:27:24.811Z,21.16
2022-10-05T14:29:56.503Z,21.12
2022-10-05T14:32:43.415Z,21.10
2022-10-05T14:35:15.027Z,21.08
2022-10-05T14:37:50.635Z,21.13
2022-10-05T14:40:36.525Z,21.43
2022-10-05T14:43:15.608Z,21.51
2022-10-05T14:45:58.826Z,21.58
2022-10-05T14:48:29.362Z,21.63
2022-10-05T14:51:03.547Z,21.66
2022-10-05T14:53:39.561Z,21.69
2022-10-05T14:56:28.869Z,21.72
2022-10-05T14:59:04.465Z,21.73
2022-10-05T15:01:39.419Z,21.72
2022-10-05T15:04:13.438Z,21.70
2022-10-05T15:06:42.137Z,21.70
2022-10-05T15:09:24.792Z,21.67
2022-10-05T15:11:53.088Z,21.65
2022-10-05T15:14:22.575Z,21.62
2022-10-05T15:16:54.106Z,21.61
2022-10-05T15:19:42.603Z,21.57
2022-10-05T15:22:27.015Z,21.52
2022-10-05T15:25:01.839Z,21.50
2022-10-05T15:27:48.240Z,21.48
2022-10-05T15:30:18.335Z,21.45
2022-10-05T15:33:07.789Z,21.43
2022-10-05T15:35:40.668Z,21.40
2022-10-05T15:38:13.362Z,21.37
2022-10-05T15:40:44.757Z,21.34
2022-10-05T15:43:17.646Z,21.34
2022-10-05T15:45:54.044Z,21.32
2022-10-05T15:48:21.110Z,21.28
2022-10-05T15:50:56.072Z,21.25
2022-10-05T15:53:25.931Z,21.24
2022-10-05T15:55:56.235Z,21.22
2022-10-05T15:58:31.455Z,21.22
2022-10-05T16:01:18.713Z,21.20
2022-10-05T16:03:48.411Z,21.18
2022-10-05T16:06:47.823Z,21.15
2022-10-05T16:09:20.238Z,21.14
2022-10-05T16:11:59.236Z,21.12
2022-10-05T16:14:35.567Z,21.11
2022-10-05T16:17:02.239Z,21.09
2022-10-05T16:19:35.975Z,21.08
2022-10-05T16:22:25.645Z,21.07
2022-10-05T16:25:06.358Z,21.05
2022-10-05T16:27:39.179Z,21.02
2022-10-05T16:30:08.816Z,21.03
2022-10-05T16:32:43.211Z,21.04
2022-10-05T16:35:16.916Z,21.04
2022-10-05T16:37:52.898Z,21.03
2022-10-05T16:40:28.711Z,21.02
2022-10-05T16:42:58.468Z,21.01
2022-10-05T16:45:25.127Z,21.01
2022-10-05T16:47:56.629Z,21.01
2022-10-05T16:50:23.330Z,21.00
2022-10-05T16:52:54.822Z,20.99
2022-10-05T16:55:27.228Z,20.98
2022-10-05T16:57:57.059Z,20.98
2022-10-05T17:00:25.246Z,20.98
2022-10-05T17:02:51.837Z,20.98
2022-10-05T17:05:38.765Z,20.97
2022-10-05T17:08:15.302Z,20.98
2022-10-05T17:10:47.764Z,20.96
2022-10-05T17:13:32.816Z,20.95
2022-10-05T17:16:08.340Z,20.94
2022-10-05T17:18:53.598Z,20.94
2022-10-05T17:21:26.491Z,20.93
2022-10-05T17:24:16.043Z,20.91
2022-10-05T17:26:42.626Z,20.90
2022-10-05T17:29:28.246Z,20.89
2022-10-05T17:32:02.186Z,20.88
2022-10-05T17:34:30.517Z,20.86
2022-10-05T17:36:58.364Z,20.85
2022-10-05T17:39:43.703Z,20.85
2022-10-05T17:42:36.477Z,20.84
2022-10-05T17:45:29.254Z,20.84
2022-10-05T17:48:00.627Z,20.83
2022-10-05T17:50:57.920Z,20.81
2022-10-05T17:53:55.128Z,20.80
2022-10-05T17:56:22.715Z,20.78
2022-10-05T17:58:54.769Z,20.79
2022-10-05T18:01:31.965Z,20.77
2022-10-05T18:04:13.657Z,20.77
2022-10-05T18:06:41.793Z,20.77
2022-10-05T18:09:11.718Z,20.75
2022-10-05T18:11:40.479Z,20.75
2022-10-05T18:14:25.397Z,20.75
2022-10-05T18:17:11.201Z,20.72
2022-10-05T18:19:39.618Z,20.73
2022-10-05T18:22:27.592Z,20.71
2022-10-05T18:25:06.080Z,20.70
2022-10-05T18:27:56.088Z,20.70
2022-10-05T18:30:24.113Z,20.69
2022-10-05T18:33:00.950Z,20.68
2022-10-05T18:35:38.132Z,20.67
2022-10-05T18:38:10.469Z,20.65
2022-10-05T18:40:38.833Z,20.66
2022-10-05T18:43:18.154Z,20.64
2022-10-05T18:46:04.399Z,20.64
2022-10-05T18:48:37.840Z,20.63
2022-10-05T18:51:16.617Z,20.62
2022-10-05T18:53:46.684Z,20.61
2022-10-05T18:56:32.104Z,20.60
2022-10-05T18:59:15.325Z,20.61
2022-10-05T19:01:56.850Z,20.60
2022-10-05T19:04:33.426Z,20.58
2022-10-05T19:07:08.891Z,20.58
2022-10-05T19:09:50.336Z,20.56
2022-10-05T19:12:34.432Z,20.56
2022-10-05T19:15:11.314Z,20.56
2022-10-05T19:17:46.807Z,20.54
2022-10-05T19:20:19.638Z,20.55
2022-10-05T19:22:55.513Z,20.54
2022-10-05T19:25:24.969Z,20.55
2022-10-05T19:27:59.555Z,20.54
2022-10-05T19:30:27.614Z,20.54
2022-10-05T19:33:13.685Z,20.52
2022-10-05T19:35:58.430Z,20.53
2022-10-05T19:38:43.556Z,20.52
2022-10-05T19:41:10.111Z,20.45
2022-10-05T19:43:41.562Z,20.45
2022-10-05T19:46:20.896Z,20.45
2022-10-05T19:48:48.821Z,20.45
2022-10-05T19:51:29.645Z,20.44
2022-10-05T19:54:01.250Z,20.45
2022-10-05T19:56:31.646Z,20.45
2022-10-05T19:59:11.648Z,20.47
2022-10-05T20:01:40.507Z,20.50
2022-10-05T20:04:11.068Z,20.53
2022-10-05T20:06:39.874Z,20.58
2022-10-05T20:09:25.053Z,20.62
2022-10-05T20:11:53.073Z,20.66
2022-10-05T20:14:29.942Z,20.68
2022-10-05T20:17:35.321Z,20.70
2022-10-05T20:20:23.033Z,20.74
2022-10-05T20:22:49.910Z,20.77
2022-10-05T20:25:19.240Z,20.80
2022-10-05T20:27:52.630Z,20.82
2022-10-05T20:30:20.288Z,20.85
2022-10-05T20:32:47.445Z,20.91
2022-10-05T20:35:15.911Z,20.96
2022-10-05T20:37:42.630Z,21.01
2022-10-05T20:40:10.488Z,21.03
2022-10-05T20:42:37.261Z,21.07
2022-10-05T20:45:04.358Z,21.10
2022-10-05T20:47:30.981Z,21.12
2022-10-05T20:49:57.621Z,21.15
2022-10-05T20:52:24.203Z,21.18
2022-10-05T20:54:59.115Z,21.19
2022-10-05T20:57:26.856Z,21.23
2022-10-05T20:59:53.479Z,21.24
2022-10-05T21:02:23.838Z,21.26
2022-10-05T21:04:50.513Z,21.27
2022-10-05T21:07:17.959Z,21.28
2022-10-05T21:09:46.679Z,21.30
2022-10-05T21:12:23.932Z,21.32
2022-10-05T21:14:52.827Z,21.34
2022-10-05T21:17:20.275Z,21.34
2022-10-05T21:19:47.172Z,21.35
2022-10-05T21:22:18.933Z,21.36
2022-10-05T21:24:46.008Z,21.37
2022-10-05T21:27:12.779Z,21.37
2022-10-05T21:29:41.300Z,21.39
2022-10-05T21:32:20.819Z,21.39
2022-10-05T21:34:47.633Z,21.40
2022-10-05T21:37:15.588Z,21.40
2022-10-05T21:39:42.166Z,21.41
2022-10-05T21:42:08.751Z,21.42
2022-10-05T21:44:35.429Z,21.42
2022-10-05T21:47:02.122Z,21.43
2022-10-05T21:49:28.918Z,21.42
2022-10-05T21:51:55.741Z,21.43
2022-10-05T21:54:22.636Z,21.43
2022-10-05T21:56:54.613Z,21.44
2022-10-05T21:59:22.585Z,21.45
2022-10-05T22:01:49.328Z,21.43
2022-10-05T22:04:16.160Z,21.45
2022-10-05T22:07:00.237Z,21.44
2022-10-05T22:09:27.979Z,21.43
2022-10-05T22:11:55.193Z,21.42
2022-10-05T22:14:21.796Z,21.43
2022-10-05T22:16:48.903Z,21.43
2022-10-05T22:19:18.825Z,21.41
2022-10-05T22:21:45.468Z,21.41
2022-10-05T22:24:12.091Z,21.41
2022-10-05T22:26:40.034Z,21.41
2022-10-05T22:29:06.718Z,21.41
2022-10-05T22:31:33.409Z,21.41
2022-10-05T22:34:00.004Z,21.37
2022-10-05T22:36:26.977Z,21.36
2022-10-05T22:38:53.591Z,21.38
2022-10-05T22:41:20.294Z,21.38
2022-10-05T22:43:48.808Z,21.39
2022-10-05T22:46:15.677Z,21.38
2022-10-05T22:48:42.581Z,21.39
2022-10-05T22:51:19.723Z,21.38
2022-10-05T22:53:53.007Z,21.40
2022-10-05T22:56:36.907Z,21.39
2022-10-05T22:59:03.599Z,21.38
2022-10-05T23:01:30.226Z,21.38
2022-10-05T23:03:57.456Z,21.41
2022-10-05T23:06:27.000Z,21.40
2022-10-05T23:08:54.326Z,21.41
2022-10-05T23:11:26.085Z,21.40
2022-10-05T23:13:53.767Z,21.40
2022-10-05T23:16:21.722Z,21.39
2022-10-05T23:18:49.728Z,21.39
2022-10-05T23:21:16.891Z,21.39
2022-10-05T23:23:47.445Z,21.37
2022-10-05T23:26:14.144Z,21.39
2022-10-05T23:29:00.928Z,21.37
2022-10-05T23:31:30.043Z,21.38
2022-10-05T23:33:56.875Z,21.38
2022-10-05T23:36:27.940Z,21.38
2022-10-05T23:38:54.501Z,21.37
2022-10-05T23:41:21.322Z,21.36
2022-10-05T23:43:48.297Z,21.36
2022-10-05T23:46:15.145Z,21.35
2022-10-05T23:48:41.808Z,21.35
2022-10-05T23:51:12.974Z,21.35
2022-10-05T23:53:39.612Z,21.34
2022-10-05T23:56:06.358Z,21.34
2022-10-05T23:58:32.962Z,21.34
